Time;durP1;ratioP1;P1;durP2;ratioP2;P2;SDS_P1;SDS_P2;PMS_P1;PMS_P2;Temp;Humidity;BMP_temperature;BMP_pressure;BME280_temperature;BME280_humidity;BME280_pressure;Samples;Min_cycle;Max_cycle;Signal;HPM_P1;HPM_P2
2023/10/20 00:02:43;;;;;;;10.02;4.50;;;;;;;18.11;47.98;96940.81;10332724;28;20113;-52
2023/10/20 00:07:42;;;;;;;8.68;4.22;;;;;;;18.08;47.95;96935.72;10332317;28;20060;-52
2023/10/20 00:12:40;;;;;;;10.40;4.43;;;;;;;18.04;48.16;96923.63;10332031;28;20110;-52
2023/10/20 00:17:40;;;;;;;10.73;3.90;;;;;;;18.00;48.31;96916.81;10331540;28;20029;-49
2023/10/20 00:22:40;;;;;;;7.28;3.97;;;;;;;18.07;48.04;96923.47;10328287;28;20137;-50
2023/10/20 00:27:41;;;;;;;13.13;4.47;;;;;;;18.15;47.92;96921.38;10328498;28;20846;-51
2023/10/20 00:32:40;;;;;;;6.50;3.92;;;;;;;18.14;48.03;96911.78;10327843;28;20061;-52
2023/10/20 00:37:39;;;;;;;6.15;3.85;;;;;;;18.25;47.97;96918.34;10328116;28;20065;-51
2023/10/20 00:42:38;;;;;;;16.52;4.40;;;;;;;18.17;48.09;96913.41;10327662;28;20473;-49
2023/10/20 00:47:39;;;;;;;10.23;3.80;;;;;;;18.22;47.94;96900.94;10327176;28;20492;-53
2023/10/20 00:52:41;;;;;;;10.43;4.10;;;;;;;18.15;48.21;96886.38;10327999;28;20081;-50
2023/10/20 00:57:42;;;;;;;8.63;4.63;;;;;;;18.02;48.71;96899.22;10326903;28;20108;-52
2023/10/20 01:02:41;;;;;;;7.40;4.20;;;;;;;17.88;49.49;96883.22;10324245;28;20132;-51
2023/10/20 01:07:40;;;;;;;10.45;4.05;;;;;;;17.29;49.50;96808.81;10326916;28;20095;-49
2023/10/20 01:12:40;;;;;;;8.25;3.85;;;;;;;17.52;49.78;96895.22;10326056;28;20078;-49
2023/10/20 01:17:39;;;;;;;6.40;3.75;;;;;;;17.53;49.65;96885.56;10326641;28;20065;-49
2023/10/20 01:22:38;;;;;;;9.30;4.20;;;;;;;17.52;49.58;96865.53;10325794;28;20080;-51
2023/10/20 01:27:37;;;;;;;9.63;3.92;;;;;;;17.68;49.11;96871.81;10325731;28;20691;-51
2023/10/20 01:32:37;;;;;;;6.40;3.75;;;;;;;17.67;49.17;96877.97;10325840;28;20160;-50
2023/10/20 01:37:36;;;;;;;11.10;4.63;;;;;;;17.66;49.01;96859.66;10325620;28;20053;-51
2023/10/20 01:42:35;;;;;;;9.18;4.22;;;;;;;17.51;49.49;96850.69;10325348;28;20120;-51
2023/10/20 01:47:35;;;;;;;8.70;4.20;;;;;;;17.48;49.48;96846.44;10326037;28;20076;-52
2023/10/20 01:52:33;;;;;;;9.10;4.30;;;;;;;17.45;49.77;96833.44;10324545;28;20060;-50
2023/10/20 01:57:32;;;;;;;6.07;3.78;;;;;;;17.54;49.57;96824.31;10325542;28;20101;-52
2023/10/20 02:02:31;;;;;;;;;;;;;;;17.58;49.58;96814.53;10324529;28;20389;-49
2023/10/20 02:07:30;;;;;;;8.60;4.10;;;;;;;17.63;49.32;96802.91;10325209;28;19963;-51
2023/10/20 02:12:29;;;;;;;6.43;4.55;;;;;;;17.63;49.22;96805.53;10324351;28;20044;-50
2023/10/20 02:17:28;;;;;;;7.95;3.75;;;;;;;17.78;48.78;96811.94;10324095;28;20029;-50
2023/10/20 02:22:27;;;;;;;13.85;4.50;;;;;;;17.92;48.25;96803.44;10324021;28;20108;-50
2023/10/20 02:27:28;;;;;;;8.43;3.95;;;;;;;18.03;48.01;96819.53;10324249;28;20041;-52
2023/10/20 02:32:27;;;;;;;9.48;3.92;;;;;;;18.01;48.06;96818.75;10324176;28;20072;-51
2023/10/20 02:37:26;;;;;;;8.50;3.42;;;;;;;17.91;48.20;96810.44;10323750;28;20111;-51
2023/10/20 02:42:25;;;;;;;9.50;4.07;;;;;;;17.82;48.44;96821.34;10324087;28;20045;-49
2023/10/20 02:47:23;;;;;;;;;;;;;;;17.72;48.31;96818.25;10324353;28;20537;-51
2023/10/20 02:52:23;;;;;;;7.93;3.83;;;;;;;17.86;48.25;96814.19;10323079;28;20406;-50
2023/10/20 02:57:23;;;;;;;11.27;4.35;;;;;;;17.90;48.18;96810.53;10323854;28;20069;-50
2023/10/20 03:02:22;;;;;;;10.02;4.05;;;;;;;17.88;48.02;96796.63;10323209;28;20116;-51
2023/10/20 03:07:24;;;;;;;8.65;3.95;;;;;;;17.91;47.66;96786.81;10323668;28;20132;-52
2023/10/20 03:12:24;;;;;;;10.07;3.28;;;;;;;18.02;47.58;96799.44;10322978;28;20065;-51
2023/10/20 03:17:22;;;;;;;8.63;3.72;;;;;;;18.11;47.31;96804.28;10322955;28;20120;-52
2023/10/20 03:22:22;;;;;;;7.05;3.80;;;;;;;18.21;47.07;96793.34;10322681;28;20047;-52
2023/10/20 03:27:22;;;;;;;8.25;3.70;;;;;;;18.21;47.14;96791.56;10322832;28;20088;-48
2023/10/20 03:32:21;;;;;;;10.10;4.18;;;;;;;18.28;46.95;96779.84;10326161;28;20492;-50
2023/10/20 03:37:20;;;;;;;7.60;3.83;;;;;;;18.24;47.05;96778.28;10330688;28;20065;-51
2023/10/20 03:42:19;;;;;;;14.20;4.18;;;;;;;18.29;46.91;96781.56;10330337;28;20069;-52
2023/10/20 03:47:18;;;;;;;13.40;3.70;;;;;;;18.29;46.73;96778.06;10329749;28;20115;-51
2023/10/20 03:52:18;;;;;;;11.10;3.88;;;;;;;18.36;46.36;96775.09;10329834;28;20156;-49
2023/10/20 03:57:19;;;;;;;12.15;4.60;;;;;;;18.22;46.28;96774.03;10330213;28;20470;-50
2023/10/20 04:02:18;;;;;;;14.25;3.67;;;;;;;18.37;46.06;96747.06;10329505;28;20069;-51
2023/10/20 04:07:17;;;;;;;13.73;4.07;;;;;;;18.42;45.69;96752.94;10328864;28;20124;-52
2023/10/20 04:12:16;;;;;;;12.63;3.35;;;;;;;18.55;45.35;96750.53;10329052;28;20113;-50
2023/10/20 04:17:15;;;;;;;11.38;4.50;;;;;;;18.58;45.63;96761.75;10330000;28;20500;-50
2023/10/20 04:22:18;;;;;;;9.35;3.75;;;;;;;18.36;45.68;96743.56;10332014;28;20080;-51
2023/10/20 04:27:38;;;;;;;7.20;3.70;;;;;;;18.18;46.00;96726.06;10332504;28;20589;-48
2023/10/20 04:48:19;;;;;;;12.02;4.15;;;;;;;18.60;45.55;96764.31;10331181;28;20471;-49
2023/10/20 04:53:45;;;;;;;11.25;4.05;;;;;;;18.43;45.57;96762.50;10328686;28;20079;-49
2023/10/20 05:03:57;;;;;;;41.03;8.13;;;;;;;18.53;45.38;96779.53;10330417;28;20065;-52
2023/10/20 05:08:56;;;;;;;12.68;5.15;;;;;;;18.59;45.12;96779.22;10330186;28;20084;-52
2023/10/20 05:13:55;;;;;;;15.25;5.30;;;;;;;18.52;45.25;96772.56;10329337;28;20068;-51
2023/10/20 05:18:55;;;;;;;16.50;7.05;;;;;;;18.52;45.45;96777.81;10327816;28;20036;-50
2023/10/20 05:23:55;;;;;;;17.67;5.90;;;;;;;18.50;45.51;96779.69;10326212;28;20083;-47
2023/10/20 05:28:55;;;;;;;20.02;5.93;;;;;;;18.50;45.28;96770.94;10326503;28;20077;-48
2023/10/20 05:33:54;;;;;;;11.55;4.93;;;;;;;18.52;45.15;96783.06;10325150;28;20077;-50
2023/10/20 05:38:53;;;;;;;13.82;4.32;;;;;;;18.79;44.75;96798.47;10323186;28;20025;-51
2023/10/20 05:43:52;;;;;;;14.73;4.47;;;;;;;18.93;44.71;96793.38;10324878;28;20151;-50
2023/10/20 05:48:51;;;;;;;16.00;4.93;;;;;;;19.17;44.65;96793.06;10323986;28;20132;-48
2023/10/20 05:53:50;;;;;;;18.42;4.70;;;;;;;19.23;44.91;96800.66;10322319;28;20124;-51
2023/10/20 05:58:50;;;;;;;14.20;4.60;;;;;;;19.21;44.69;96792.81;10331601;28;20357;-48
2023/10/20 06:03:49;;;;;;;12.52;7.45;;;;;;;18.75;45.07;96703.13;10328671;28;20081;-51
2023/10/20 06:08:49;;;;;;;15.52;6.28;;;;;;;19.42;44.44;96806.66;10328318;28;20520;-48
2023/10/20 06:13:49;;;;;;;16.63;4.65;;;;;;;19.56;43.34;96792.81;10325668;28;20329;-49
2023/10/20 06:18:49;;;;;;;12.73;4.40;;;;;;;19.79;42.56;96807.41;10325044;28;20415;-49
2023/10/20 06:23:49;;;;;;;19.60;4.78;;;;;;;20.26;42.27;96814.50;10328732;28;20081;-49
2023/10/20 06:28:48;;;;;;;14.82;3.63;;;;;;;20.48;40.84;96793.09;10328190;28;20092;-52
2023/10/20 06:33:48;;;;;;;13.77;3.40;;;;;;;20.60;40.05;96759.09;10328771;28;20033;-51
2023/10/20 06:38:48;;;;;;;7.28;3.40;;;;;;;21.10;39.50;96793.09;10316113;28;20511;-50
2023/10/20 06:43:47;;;;;;;12.23;3.85;;;;;;;21.38;38.91;96787.97;10303469;28;20129;-49
2023/10/20 06:48:47;;;;;;;14.10;4.18;;;;;;;21.70;38.44;96791.31;10316866;28;20080;-51
2023/10/20 06:53:46;;;;;;;14.70;3.72;;;;;;;21.88;37.61;96791.97;10320849;28;20559;-52
2023/10/20 06:58:47;;;;;;;10.43;3.38;;;;;;;22.02;36.99;96793.78;10306897;28;20877;-51
2023/10/20 07:03:46;;;;;;;14.48;3.80;;;;;;;22.21;37.42;96799.63;10320880;28;20069;-51
2023/10/20 07:08:45;;;;;;;20.70;4.05;;;;;;;22.31;37.33;96800.72;10319939;28;20555;-49
2023/10/20 07:13:44;;;;;;;10.10;3.75;;;;;;;22.49;37.33;96819.00;10309768;28;20508;-51
2023/10/20 07:18:43;;;;;;;12.70;4.53;;;;;;;22.69;36.25;96836.22;10341885;28;20068;-52
2023/10/20 07:23:42;;;;;;;14.65;4.63;;;;;;;22.79;35.95;96805.63;10341015;28;20041;-50
2023/10/20 07:28:41;;;;;;;14.80;3.95;;;;;;;23.01;35.71;96815.63;10342508;28;20091;-49
2023/10/20 07:33:41;;;;;;;20.77;4.43;;;;;;;23.24;35.26;96814.13;10341330;28;20069;-49
2023/10/20 07:38:42;;;;;;;14.35;4.47;;;;;;;23.28;35.03;96785.63;10340580;28;20069;-48
2023/10/20 07:43:42;;;;;;;8.77;4.20;;;;;;;23.60;34.31;96816.06;10336037;28;20071;-49
2023/10/20 07:48:42;;;;;;;10.18;3.65;;;;;;;23.95;33.90;96833.16;10339917;28;20064;-52
2023/10/20 07:53:40;;;;;;;12.35;4.05;;;;;;;24.20;33.62;96829.66;10340734;28;20044;-51
2023/10/20 07:58:39;;;;;;;10.68;3.97;;;;;;;24.51;33.11;96830.13;10338613;28;20021;-52
2023/10/20 08:03:42;;;;;;;26.77;5.22;;;;;;;24.75;32.82;96825.66;10338929;28;20033;-50
2023/10/20 08:08:41;;;;;;;9.60;3.75;;;;;;;25.08;32.63;96802.94;10326510;28;20084;-48
2023/10/20 08:13:40;;;;;;;10.80;4.13;;;;;;;25.20;31.88;96806.47;10339708;28;20072;-49
2023/10/20 08:18:39;;;;;;;12.00;4.05;;;;;;;25.42;31.78;96816.34;10333422;28;20120;-52
2023/10/20 08:23:38;;;;;;;20.02;4.30;;;;;;;25.40;31.41;96807.63;10319727;28;20087;-48
2023/10/20 08:28:37;;;;;;;15.18;3.95;;;;;;;25.02;31.56;96803.41;10311502;28;20069;-51
2023/10/20 08:33:36;;;;;;;12.75;3.72;;;;;;;25.02;32.02;96819.34;10328882;28;20060;-51
2023/10/20 08:38:35;;;;;;;11.73;4.03;;;;;;;25.09;32.04;96820.56;10334723;28;20117;-50
2023/10/20 08:43:35;;;;;;;15.77;4.22;;;;;;;25.26;31.79;96822.78;10330456;28;20032;-51
2023/10/20 08:48:38;;;;;;;11.82;4.50;;;;;;;25.56;31.79;96824.13;10328085;28;20072;-49
2023/10/20 08:53:37;;;;;;;13.32;3.95;;;;;;;25.92;30.83;96831.03;10333733;28;20440;-50
2023/10/20 08:58:36;;;;;;;15.23;4.40;;;;;;;26.28;30.84;96831.00;10335334;28;20147;-52
2023/10/20 09:03:40;;;;;;;13.43;4.88;;;;;;;26.58;30.48;96828.53;10335094;28;20110;-49
2023/10/20 09:08:40;;;;;;;9.57;3.78;;;;;;;26.61;29.16;96827.44;10335572;28;20528;-51
2023/10/20 09:13:40;;;;;;;10.93;3.95;;;;;;;26.66;30.03;96827.06;10311674;28;20076;-49
2023/10/20 09:18:50;;;;;;;15.25;3.38;;;;;;;26.73;29.07;96836.22;10322087;28;20119;-52
2023/10/20 09:23:59;;;;;;;15.23;4.22;;;;;;;26.64;29.29;96850.28;10333555;28;20065;-52
2023/10/20 09:28:58;;;;;;;12.50;3.80;;;;;;;26.61;28.94;96837.25;10320678;28;20077;-51
2023/10/20 09:33:57;;;;;;;13.95;4.22;;;;;;;26.79;28.84;96849.91;10333369;28;20124;-51
2023/10/20 09:38:57;;;;;;;12.77;4.22;;;;;;;26.92;29.52;96846.25;10332348;28;20503;-52
2023/10/20 09:44:08;;;;;;;14.15;4.10;;;;;;;26.95;29.11;96852.16;10327129;28;20065;-52
2023/10/20 09:49:22;;;;;;;12.57;4.53;;;;;;;26.96;29.21;96837.91;10333247;28;20084;-51
2023/10/20 09:54:28;;;;;;;13.80;3.85;;;;;;;26.92;29.06;96823.13;10332177;28;20114;-51
2023/10/20 09:59:27;;;;;;;13.35;4.18;;;;;;;26.75;29.04;96828.97;10360203;28;20087;-52
2023/10/20 10:04:39;;;;;;;13.00;4.35;;;;;;;26.83;28.93;96831.00;10324224;28;20112;-51
2023/10/20 10:09:43;;;;;;;11.73;3.78;;;;;;;26.90;29.14;96821.56;10333113;28;20081;-52
2023/10/20 10:14:42;;;;;;;12.23;4.30;;;;;;;26.87;28.75;96819.16;10333113;28;20064;-52
2023/10/20 10:19:52;;;;;;;12.68;3.83;;;;;;;26.90;29.14;96811.75;10326685;28;20069;-52
2023/10/20 10:24:52;;;;;;;24.63;4.05;;;;;;;26.83;28.78;96817.69;10332855;28;20084;-52
2023/10/20 10:29:59;;;;;;;16.50;3.90;;;;;;;26.68;29.33;96807.34;10333096;28;20523;-52
2023/10/20 10:34:59;;;;;;;11.77;4.00;;;;;;;26.64;29.65;96802.38;10326918;28;20062;-52
2023/10/20 10:40:04;;;;;;;16.45;4.88;;;;;;;26.77;29.04;96792.44;10292493;28;20481;-49
2023/10/20 10:45:23;;;;;;;18.95;4.32;;;;;;;26.76;29.54;96777.41;10316170;28;20077;-52
2023/10/20 10:50:22;;;;;;;13.38;3.25;;;;;;;26.93;29.14;96789.38;10330663;28;20096;-50
2023/10/20 10:55:21;;;;;;;10.90;4.13;;;;;;;27.07;28.75;96788.22;10320537;28;20052;-52
2023/10/20 11:00:21;;;;;;;11.77;3.97;;;;;;;27.17;28.00;96787.34;10342365;28;20065;-49
2023/10/20 11:05:21;;;;;;;13.77;3.85;;;;;;;27.15;27.38;96743.16;10333139;28;20073;-50
2023/10/20 11:10:20;;;;;;;10.70;3.60;;;;;;;27.51;27.47;96778.34;10304018;28;20081;-51
2023/10/20 11:15:19;;;;;;;14.88;3.90;;;;;;;27.53;27.60;96784.38;10351105;28;20065;-51
2023/10/20 11:20:20;;;;;;;16.02;4.30;;;;;;;27.37;27.08;96772.31;10322234;28;20073;-50
2023/10/20 11:25:20;;;;;;;16.60;4.03;;;;;;;27.47;27.14;96780.44;10290163;28;20081;-51
2023/10/20 11:30:26;;;;;;;14.27;3.90;;;;;;;27.66;26.73;96779.69;10293297;28;20602;-51
2023/10/20 11:35:25;;;;;;;20.60;4.25;;;;;;;27.97;27.05;96779.72;10326051;28;20073;-51
2023/10/20 11:40:26;;;;;;;16.42;3.83;;;;;;;27.92;26.40;96777.44;10315675;28;20069;-48
2023/10/20 11:45:25;;;;;;;12.85;3.92;;;;;;;27.93;26.67;96759.59;10305585;28;20072;-51
2023/10/20 11:50:24;;;;;;;12.65;4.45;;;;;;;28.13;26.64;96785.41;10323570;28;20033;-51
2023/10/20 11:55:23;;;;;;;16.52;4.80;;;;;;;28.23;25.66;96777.44;10320325;28;20477;-52
2023/10/20 12:00:22;;;;;;;11.70;3.75;;;;;;;28.63;25.25;96781.88;10338118;28;20064;-51
2023/10/20 12:05:21;;;;;;;10.40;3.78;;;;;;;29.03;24.98;96771.13;10327988;28;20046;-51
2023/10/20 12:10:23;;;;;;;14.57;4.03;;;;;;;29.31;23.97;96773.13;10296334;28;20053;-49
2023/10/20 12:15:22;;;;;;;10.65;3.22;;;;;;;29.48;24.01;96777.72;10297325;28;20073;-51
2023/10/20 12:20:21;;;;;;;15.68;4.03;;;;;;;29.63;24.06;96778.13;10299850;28;20120;-50
2023/10/20 12:25:21;;;;;;;13.80;3.97;;;;;;;29.65;23.41;96768.97;10306056;28;20045;-51
2023/10/20 12:30:20;;;;;;;15.82;4.15;;;;;;;29.67;23.65;96777.69;10321327;28;20509;-51
2023/10/20 12:35:19;;;;;;;18.90;4.45;;;;;;;29.92;23.54;96784.25;10298878;28;20069;-51
2023/10/20 12:40:18;;;;;;;13.93;3.58;;;;;;;30.14;23.58;96779.53;10305461;28;20556;-49
2023/10/20 12:45:17;;;;;;;12.20;3.30;;;;;;;30.33;22.95;96790.13;10327580;28;20451;-53
2023/10/20 12:50:16;;;;;;;12.55;3.85;;;;;;;30.46;22.38;96786.28;10333849;28;20504;-51
2023/10/20 12:55:15;;;;;;;16.02;4.03;;;;;;;30.63;22.43;96796.22;10317442;28;20038;-50
2023/10/20 13:00:15;;;;;;;10.40;3.78;;;;;;;30.78;22.10;96798.38;10299025;28;20061;-51
2023/10/20 13:05:15;;;;;;;11.43;3.72;;;;;;;30.71;22.61;96804.31;10297095;28;20139;-51
2023/10/20 13:10:14;;;;;;;12.65;3.50;;;;;;;30.67;21.97;96797.56;10298252;28;20489;-49
2023/10/20 13:15:13;;;;;;;10.10;3.42;;;;;;;30.58;21.99;96798.47;10298087;28;20041;-51
2023/10/20 13:20:13;;;;;;;10.95;3.05;;;;;;;30.50;22.14;96790.34;10294978;28;20081;-52
2023/10/20 13:25:12;;;;;;;14.25;3.90;;;;;;;30.69;22.23;96798.25;10293062;28;20077;-53
2023/10/20 13:30:12;;;;;;;13.38;3.95;;;;;;;30.58;22.08;96806.50;10293471;28;20178;-52
2023/10/20 13:35:11;;;;;;;14.07;3.90;;;;;;;30.44;22.13;96791.78;10294547;28;20073;-51
2023/10/20 13:40:11;;;;;;;9.82;3.15;;;;;;;30.34;21.97;96799.84;10293958;28;20115;-52
2023/10/20 13:45:10;;;;;;;22.88;4.53;;;;;;;30.14;21.81;96779.53;10293872;28;20092;-52
2023/10/20 13:50:09;;;;;;;14.00;3.60;;;;;;;29.76;21.70;96802.69;10293339;28;20141;-51
2023/10/20 13:55:08;;;;;;;14.80;3.78;;;;;;;29.54;22.08;96771.81;10292136;28;20038;-50
2023/10/20 14:00:08;;;;;;;15.40;3.88;;;;;;;29.59;22.26;96796.28;10292414;28;20042;-51
2023/10/20 14:05:07;;;;;;;14.52;4.18;;;;;;;29.41;23.02;96798.00;10291850;28;20069;-52
2023/10/20 14:10:06;;;;;;;18.30;4.60;;;;;;;29.05;22.97;96787.84;10292387;28;20072;-51
2023/10/20 14:15:06;;;;;;;18.58;4.18;;;;;;;28.83;23.51;96804.16;10292269;28;20414;-53
2023/10/20 14:20:06;;;;;;;14.05;3.75;;;;;;;28.53;22.75;96797.06;10292216;28;20528;-51
2023/10/20 14:25:05;;;;;;;11.52;4.00;;;;;;;28.41;23.09;96794.50;10293141;28;20084;-52
2023/10/20 14:30:05;;;;;;;19.08;4.28;;;;;;;28.22;22.64;96789.94;10292827;28;20072;-51
2023/10/20 14:35:04;;;;;;;21.80;4.35;;;;;;;28.17;22.80;96786.84;10292564;28;20061;-51
2023/10/20 14:40:04;;;;;;;17.88;3.80;;;;;;;28.05;22.58;96787.88;10291998;28;20080;-52
2023/10/20 14:45:03;;;;;;;26.90;4.18;;;;;;;27.82;23.02;96782.72;10292246;28;20072;-52
2023/10/20 14:50:03;;;;;;;16.20;4.05;;;;;;;27.72;22.78;96788.97;10293387;28;20104;-53
2023/10/20 14:55:03;;;;;;;18.67;4.03;;;;;;;27.72;22.96;96797.81;10292779;28;20073;-52
2023/10/20 15:00:09;;;;;;;15.80;4.30;;;;;;;27.53;23.61;96795.88;10327187;28;20091;-50
2023/10/20 15:05:08;;;;;;;20.02;4.03;;;;;;;27.36;23.73;96807.94;10331133;28;20080;-51
2023/10/20 15:10:07;;;;;;;13.98;3.78;;;;;;;27.03;23.83;96802.78;10329376;28;20080;-52
2023/10/20 15:15:07;;;;;;;64.43;8.77;;;;;;;26.82;24.61;96808.88;10328498;28;20080;-51
2023/10/20 15:20:06;;;;;;;18.75;4.47;;;;;;;26.45;24.54;96785.25;10331377;28;20110;-51
2023/10/20 15:25:05;;;;;;;16.92;4.10;;;;;;;26.53;25.43;96824.53;10345095;28;20091;-51
2023/10/20 15:30:05;;;;;;;14.25;4.00;;;;;;;26.28;25.91;96825.66;10421709;28;20067;-52
2023/10/20 15:35:04;;;;;;;16.63;4.70;;;;;;;26.00;25.68;96824.31;10422878;28;20063;-54
2023/10/20 15:40:11;;;;;;;13.55;3.72;;;;;;;25.78;26.05;96825.13;10422678;28;20036;-51
2023/10/20 15:45:11;;;;;;;21.17;4.47;;;;;;;25.67;26.56;96849.88;10422165;28;20071;-50
2023/10/20 15:50:12;;;;;;;15.85;5.05;;;;;;;25.56;26.80;96845.38;10422180;28;20060;-52
2023/10/20 15:55:12;;;;;;;15.35;3.60;;;;;;;25.25;26.94;96846.81;10420861;28;20044;-50
2023/10/20 16:00:12;;;;;;;13.65;4.25;;;;;;;25.12;26.91;96857.50;10408453;28;20496;-51
2023/10/20 16:05:11;;;;;;;14.90;4.00;;;;;;;25.09;26.75;96855.06;10384891;28;20548;-51
2023/10/20 16:10:10;;;;;;;22.25;4.25;;;;;;;25.01;27.01;96860.09;10369015;28;20128;-50
2023/10/20 16:15:09;;;;;;;10.93;3.47;;;;;;;24.92;27.04;96863.41;10408100;28;20557;-49
2023/10/20 16:20:09;;;;;;;15.35;3.92;;;;;;;24.78;27.41;96859.97;10410753;28;20071;-51
2023/10/20 16:25:08;;;;;;;13.52;4.15;;;;;;;24.72;27.30;96873.66;10370859;28;20423;-52
2023/10/20 16:30:08;;;;;;;17.42;4.45;;;;;;;24.61;27.49;96885.03;10370132;28;20075;-52
2023/10/20 16:35:08;;;;;;;10.43;3.90;;;;;;;24.59;27.57;96899.38;10367092;28;20083;-52
2023/10/20 16:40:07;;;;;;;13.57;3.20;;;;;;;24.21;27.61;96871.94;10368608;28;20212;-50
2023/10/20 16:45:07;;;;;;;15.38;4.43;;;;;;;24.40;27.46;96906.00;10368590;28;20104;-49
2023/10/20 16:50:06;;;;;;;12.88;3.75;;;;;;;24.36;27.58;96907.16;10396827;28;20059;-51
2023/10/20 16:55:06;;;;;;;10.85;3.20;;;;;;;24.35;27.71;96900.16;10410010;28;20066;-49
2023/10/20 17:00:05;;;;;;;16.98;5.20;;;;;;;24.27;27.76;96895.38;10402751;28;20740;-50
2023/10/20 17:05:05;;;;;;;12.65;3.58;;;;;;;24.25;27.67;96905.25;10367441;28;20132;-51
2023/10/20 17:10:05;;;;;;;21.40;3.83;;;;;;;24.25;27.77;96899.09;10367370;28;20076;-52
2023/10/20 17:15:05;;;;;;;23.75;3.60;;;;;;;24.19;27.77;96904.81;10367444;28;20048;-50
2023/10/20 17:20:05;;;;;;;14.20;3.47;;;;;;;24.00;27.65;96846.91;10392959;28;20060;-50
2023/10/20 17:25:05;;;;;;;11.93;2.85;;;;;;;24.25;27.41;96897.28;10407002;28;20098;-50
2023/10/20 17:30:05;;;;;;;18.08;3.88;;;;;;;21.86;27.62;96501.53;10407624;28;20555;-48
2023/10/20 17:35:05;;;;;;;17.77;3.63;;;;;;;24.27;27.46;96897.19;10406841;28;20471;-47
2023/10/20 17:40:06;;;;;;;14.07;3.75;;;;;;;24.25;27.60;96902.59;10407605;28;20083;-52
2023/10/20 17:45:06;;;;;;;12.95;3.38;;;;;;;24.15;28.01;96882.13;10406191;28;20091;-50
2023/10/20 17:50:06;;;;;;;19.25;3.53;;;;;;;24.16;28.06;96891.75;10407219;28;20079;-52
2023/10/20 17:55:05;;;;;;;16.77;3.88;;;;;;;23.99;28.41;96877.88;10405865;28;20182;-49
2023/10/20 18:00:05;;;;;;;18.15;3.65;;;;;;;24.05;28.31;96872.16;10399614;28;20135;-51
2023/10/20 18:05:04;;;;;;;33.00;4.53;;;;;;;24.09;28.42;96898.44;10364468;28;20507;-52
2023/10/20 18:10:04;;;;;;;16.73;4.22;;;;;;;24.08;28.58;96884.34;10365750;28;20075;-50
2023/10/20 18:15:04;;;;;;;19.13;4.47;;;;;;;24.08;28.93;96902.06;10366123;28;20559;-50
2023/10/20 18:20:04;;;;;;;15.45;4.07;;;;;;;24.08;29.52;96902.06;10380644;28;20071;-48
2023/10/20 18:25:04;;;;;;;11.93;3.83;;;;;;;23.97;29.90;96921.34;10405239;28;20541;-53
2023/10/20 18:30:03;;;;;;;12.65;4.32;;;;;;;23.69;30.10;96896.72;10405865;28;20071;-52
2023/10/20 18:35:05;;;;;;;15.50;4.00;;;;;;;23.36;30.10;96852.16;10361017;28;20045;-52
2023/10/20 18:40:05;;;;;;;13.90;3.80;;;;;;;23.78;30.86;96937.66;10364092;28;20072;-52
2023/10/20 18:45:05;;;;;;;12.05;4.30;;;;;;;23.70;31.12;96962.00;10363540;28;20068;-51
2023/10/20 18:50:05;;;;;;;15.52;4.00;;;;;;;23.63;30.91;96950.97;10364366;28;20152;-51
2023/10/20 18:55:04;;;;;;;11.75;3.92;;;;;;;23.56;31.37;96970.00;10342351;28;20072;-50
2023/10/20 19:00:04;;;;;;;12.63;4.22;;;;;;;23.57;31.11;96977.84;10313516;28;20160;-52
2023/10/20 19:05:04;;;;;;;9.73;4.18;;;;;;;23.46;31.66;96980.31;10329916;28;20120;-52
2023/10/20 19:10:04;;;;;;;11.52;4.45;;;;;;;23.39;31.67;96979.03;10331368;28;20099;-51
2023/10/20 19:15:03;;;;;;;14.68;4.35;;;;;;;23.36;31.93;96977.41;10330619;28;20080;-50
2023/10/20 19:20:03;;;;;;;9.52;3.90;;;;;;;23.35;31.52;96978.38;10331141;28;20203;-50
2023/10/20 19:25:03;;;;;;;11.00;4.82;;;;;;;23.36;30.86;96977.41;10376360;28;20148;-49
2023/10/20 19:30:04;;;;;;;13.30;4.43;;;;;;;23.39;30.63;96971.06;10412598;28;20417;-49
2023/10/20 19:35:05;;;;;;;18.55;3.70;;;;;;;23.13;30.65;96925.97;10412043;28;20530;-52
2023/10/20 19:40:05;;;;;;;16.17;4.03;;;;;;;23.41;30.06;96982.41;10411433;28;20072;-52
2023/10/20 19:45:05;;;;;;;14.10;3.65;;;;;;;23.03;30.29;96916.94;10410886;28;20127;-51
2023/10/20 19:50:06;;;;;;;16.67;3.55;;;;;;;23.32;30.35;96983.00;10411853;28;20075;-52
2023/10/20 19:55:05;;;;;;;16.35;4.22;;;;;;;23.15;29.96;96942.59;10411225;28;20170;-52
2023/10/20 20:00:05;;;;;;;15.20;4.45;;;;;;;23.47;30.11;96995.31;10410666;28;20449;-53
2023/10/20 20:05:05;;;;;;;10.98;3.65;;;;;;;23.49;30.13;96992.53;10410380;28;20076;-50
2023/10/20 20:10:05;;;;;;;15.13;3.72;;;;;;;23.30;29.53;96961.94;10410880;28;20060;-50
2023/10/20 20:15:06;;;;;;;13.60;4.22;;;;;;;23.25;29.46;96947.31;10408898;28;20195;-52
2023/10/20 20:20:06;;;;;;;11.88;4.00;;;;;;;23.66;29.25;96992.28;10413191;28;20068;-49
2023/10/20 20:25:05;;;;;;;55.30;6.45;;;;;;;23.69;29.42;97000.03;10394343;28;20099;-49
2023/10/20 20:30:04;;;;;;;13.95;4.00;;;;;;;23.78;28.79;97004.72;10413762;28;20056;-51
2023/10/20 20:35:05;;;;;;;14.88;3.78;;;;;;;23.74;29.16;97000.56;10395122;28;20062;-52
2023/10/20 20:40:07;;;;;;;12.38;3.58;;;;;;;23.83;29.14;97004.41;10412586;28;20523;-51
2023/10/20 20:45:07;;;;;;;23.90;4.38;;;;;;;23.85;28.94;97006.00;10411468;28;20072;-53
2023/10/20 20:50:06;;;;;;;11.43;3.55;;;;;;;23.88;29.03;96991.69;10413141;28;20062;-53
2023/10/20 20:55:05;;;;;;;11.77;3.35;;;;;;;23.85;28.83;97002.50;10412663;28;20048;-53
2023/10/20 21:00:05;;;;;;;14.32;4.15;;;;;;;23.88;28.68;96989.06;10409745;28;20588;-53
2023/10/20 21:05:05;;;;;;;17.10;3.95;;;;;;;23.86;28.63;96985.66;10412147;28;20537;-52
2023/10/20 21:10:04;;;;;;;12.25;3.97;;;;;;;23.74;28.94;96967.94;10412314;28;20056;-53
2023/10/20 21:15:04;;;;;;;19.50;3.85;;;;;;;23.56;28.76;96965.56;10370549;28;20075;-53
2023/10/20 21:20:05;;;;;;;11.32;3.40;;;;;;;23.74;28.88;96983.81;10350145;28;20083;-52
2023/10/20 21:25:04;;;;;;;14.98;3.60;;;;;;;23.63;28.92;96988.06;10366268;28;20500;-50
2023/10/20 21:30:05;;;;;;;15.25;3.00;;;;;;;23.68;28.62;96985.09;10366350;28;20064;-51
2023/10/20 21:35:05;;;;;;;21.00;5.22;;;;;;;23.70;28.84;96987.63;10348706;28;20076;-51
2023/10/20 21:40:05;;;;;;;16.17;3.85;;;;;;;23.74;28.62;96991.78;10366502;28;20057;-52
2023/10/20 21:45:04;;;;;;;13.98;3.30;;;;;;;23.75;28.18;96990.84;10365891;28;20522;-52
2023/10/20 21:50:04;;;;;;;14.80;4.07;;;;;;;23.73;28.41;96990.09;10365712;28;20112;-51
2023/10/20 21:55:03;;;;;;;11.20;4.20;;;;;;;23.79;28.35;97003.75;10366009;28;20071;-51
2023/10/20 22:00:15;;;;;;;13.07;3.60;;;;;;;23.78;28.67;97015.31;10369341;28;20460;-51
2023/10/20 22:05:15;;;;;;;13.68;4.00;;;;;;;23.72;29.12;97020.16;10405355;28;20132;-49
2023/10/20 22:10:14;;;;;;;12.13;4.22;;;;;;;23.62;29.01;97023.41;10406681;28;20507;-49
2023/10/20 22:15:13;;;;;;;13.77;3.58;;;;;;;23.53;29.82;97026.66;10405906;28;20013;-49
2023/10/20 22:20:12;;;;;;;14.82;3.75;;;;;;;23.50;29.80;97024.22;10405407;28;20042;-49
2023/10/20 22:25:11;;;;;;;12.98;3.67;;;;;;;23.36;29.83;97006.53;10402629;28;20043;-51
2023/10/20 22:30:11;;;;;;;13.77;3.83;;;;;;;23.39;29.90;97021.38;10402523;28;20107;-52
2023/10/20 22:35:10;;;;;;;12.23;3.60;;;;;;;23.32;29.54;97002.38;10402690;28;20063;-49
2023/10/20 22:40:12;;;;;;;8.23;3.70;;;;;;;23.32;29.43;97012.97;10405081;28;20468;-51
2023/10/20 22:45:11;;;;;;;12.60;3.97;;;;;;;23.29;29.96;97015.00;10405789;28;20079;-51
2023/10/20 22:50:10;;;;;;;14.88;4.10;;;;;;;23.12;30.18;96990.44;10405379;28;20064;-49
2023/10/20 22:55:09;;;;;;;11.35;4.10;;;;;;;23.20;30.19;97004.03;10404854;28;20090;-50
2023/10/20 23:00:09;;;;;;;17.42;5.35;;;;;;;23.19;30.01;97005.00;10403791;28;20064;-51
2023/10/20 23:05:09;;;;;;;14.48;3.90;;;;;;;23.03;30.61;97006.91;10404172;28;20075;-49
2023/10/20 23:10:08;;;;;;;11.52;4.32;;;;;;;22.95;30.60;96996.81;10405399;28;20056;-48
2023/10/20 23:15:08;;;;;;;11.00;4.20;;;;;;;22.91;30.27;96995.31;10386954;28;20075;-48
2023/10/20 23:20:08;;;;;;;9.63;4.30;;;;;;;22.94;30.77;97007.50;10407515;28;20055;-50
2023/10/20 23:25:07;;;;;;;13.80;4.25;;;;;;;22.92;30.34;97001.44;10408771;28;20072;-51